Vremea acum in Ovidiu - Romania

Vrei sa afli care e starea vremii acum in Constanta - Romania? Dorim sa iti furnizam starea vremii pentru Constanta - Romania. Starea vremii Constanta - Romania pentru astazi.

Vremea acum in Ovidiu

Temperatura: 13.1 °C

Este: Ploaie ușoară
Se simte ca: 12.5 °C
Innorat: 75 %
Precipitatii: 100 %
Presiune atmosferica: 1014 hPa
Umiditate: 100%
Vizibilitate: 3 km
Vantul bate din N cu 9 km/h

Evolutia vremii in Ovidiu pe ore

Ora: 05:00
Ploaie ușoară
Temperatura: 12.9°C
Sansa de precipitatii: 100%
Ora Descriere Temp Se simte Precipitatii Umiditate Vant
00:00Ploi usoare13.7°13.7°100%88%SSE 2.5 KM/H
01:00Burniță ușoară13.5°14.2°100%89%WNW 3.6 KM/H
02:00Burniță ușoară13.3°13.2°100%90%NW 6.5 KM/H
03:00Ploaie ușoară13.1°12.4°100%100%N 9 KM/H
04:00Ploaie ușoară13°12°100%93%NNE 11.2 KM/H
05:00Ploaie ușoară12.9°11.8°100%95%NNE 12.6 KM/H
06:00Burniță ușoară12.9°11.8°100%96%NNE 11.9 KM/H
07:00Burniță ușoară12.9°12.1°100%96%NNE 10.1 KM/H
08:00Burniță ușoară13°12.5°100%96%NNE 8.3 KM/H
09:00Patchy rain nearby13.4°13.1°61%93%NNW 7.2 KM/H
10:00Patchy rain nearby13.7°13.4°100%91%NW 7.6 KM/H
11:00Patchy rain nearby13.8°13.4°65%90%WNW 9 KM/H
12:00Patchy rain nearby14.1°13.3°73%90%WNW 12.2 KM/H
13:00Patchy rain nearby14.6°13.6°69%89%WNW 14.8 KM/H
14:00Patchy rain nearby15.1°15.1°62%89%WNW 16.9 KM/H
15:00Patchy rain nearby16.1°16.1°85%84%NW 15.1 KM/H
16:0016.9°16.9°0%78%NNW 13 KM/H
17:00Innorat17.3°17.3°0%75%N 12.6 KM/H
18:00Innorat17°17°0%75%N 10.1 KM/H
19:00Innorat16.5°16.5°0%78%NNE 6.5 KM/H
20:0015.1°15.1°0%84%NNE 5.4 KM/H
21:00Senin14.2°14.7°0%87%NNE 4.3 KM/H
22:00Senin13.8°13.8°0%87%NW 1.1 KM/H
23:00Senin13.6°13.7°0%87%W 2.2 KM/H




tutorials